Terminal Aerodrome Forecast
Issued by NWS

Home | Current Version | Previous Version | Text Only | Print | Product List | Glossary On
Versions: 1 2 3 4 5 6 7 8 9 10 11 12 13
000
FTUS46 KSEW 240500
TAFOLM
TAF
KOLM 240524Z 2406/2506 15004KT 5SM -RA BR SCT007 BKN017 OVC025
      TEMPO 2406/2410 2SM RA BR BKN007 OVC015
     FM241000 20011KT 4SM -RA BR OVC010
     FM241700 21012G18KT P6SM -SHRA OVC022
     FM242200 23012KT P6SM VCSH SCT025 OVC050
     FM250400 22007KT P6SM VCSH BKN035 BKN060=

USA.gov is the U.S. government's official web portal to all federal, state and local government web resources and services.